sensor_id;sensor_type;location;lat;lon;timestamp;temperature;humidity
22568;DHT22;11450;50.818;4.382;2022-07-22T00:00:16;19.00;99.90
22568;DHT22;11450;50.818;4.382;2022-07-22T00:02:54;18.90;99.90
22568;DHT22;11450;50.818;4.382;2022-07-22T00:05:22;19.00;99.90
22568;DHT22;11450;50.818;4.382;2022-07-22T00:07:58;19.00;99.90
22568;DHT22;11450;50.818;4.382;2022-07-22T00:10:35;18.90;99.90
22568;DHT22;11450;50.818;4.382;2022-07-22T00:13:01;19.00;99.90
22568;DHT22;11450;50.818;4.382;2022-07-22T00:15:47;18.90;99.90
22568;DHT22;11450;50.818;4.382;2022-07-22T00:18:23;18.90;99.90
22568;DHT22;11450;50.818;4.382;2022-07-22T00:20:57;18.90;99.90
22568;DHT22;11450;50.818;4.382;2022-07-22T00:23:28;18.90;99.90
22568;DHT22;11450;50.818;4.382;2022-07-22T00:25:55;18.90;99.90
22568;DHT22;11450;50.818;4.382;2022-07-22T00:28:24;18.80;99.90
22568;DHT22;11450;50.818;4.382;2022-07-22T00:34:06;18.70;99.90
22568;DHT22;11450;50.818;4.382;2022-07-22T00:40:04;18.80;99.90
22568;DHT22;11450;50.818;4.382;2022-07-22T00:42:31;18.80;99.90
22568;DHT22;11450;50.818;4.382;2022-07-22T00:45:02;18.80;99.90
22568;DHT22;11450;50.818;4.382;2022-07-22T00:47:30;18.70;99.90
22568;DHT22;11450;50.818;4.382;2022-07-22T00:49:58;18.80;99.90
22568;DHT22;11450;50.818;4.382;2022-07-22T00:52:28;18.80;99.90
22568;DHT22;11450;50.818;4.382;2022-07-22T00:54:59;18.80;99.90
22568;DHT22;11450;50.818;4.382;2022-07-22T00:57:26;18.70;99.90
22568;DHT22;11450;50.818;4.382;2022-07-22T00:59:58;18.70;99.90
22568;DHT22;11450;50.818;4.382;2022-07-22T01:05:35;18.60;99.90
22568;DHT22;11450;50.818;4.382;2022-07-22T01:08:05;18.50;99.90
22568;DHT22;11450;50.818;4.382;2022-07-22T01:10:52;18.50;99.90
22568;DHT22;11450;50.818;4.382;2022-07-22T01:13:29;18.50;99.90
22568;DHT22;11450;50.818;4.382;2022-07-22T01:15:58;18.50;99.90
22568;DHT22;11450;50.818;4.382;2022-07-22T01:18:31;18.40;99.90
22568;DHT22;11450;50.818;4.382;2022-07-22T01:21:03;18.40;99.90
22568;DHT22;11450;50.818;4.382;2022-07-22T01:23:32;18.40;99.90
22568;DHT22;11450;50.818;4.382;2022-07-22T01:26:02;18.40;99.90
22568;DHT22;11450;50.818;4.382;2022-07-22T01:28:34;18.50;99.90
22568;DHT22;11450;50.818;4.382;2022-07-22T01:31:07;18.50;99.90
22568;DHT22;11450;50.818;4.382;2022-07-22T01:33:36;18.40;99.90
22568;DHT22;11450;50.818;4.382;2022-07-22T01:39:28;18.50;99.90
22568;DHT22;11450;50.818;4.382;2022-07-22T01:42:00;18.50;99.90
22568;DHT22;11450;50.818;4.382;2022-07-22T01:44:37;18.50;99.90
22568;DHT22;11450;50.818;4.382;2022-07-22T01:47:24;18.50;99.90
22568;DHT22;11450;50.818;4.382;2022-07-22T01:50:20;18.50;99.90
22568;DHT22;11450;50.818;4.382;2022-07-22T01:53:17;18.50;99.90
22568;DHT22;11450;50.818;4.382;2022-07-22T01:55:57;18.40;99.90
22568;DHT22;11450;50.818;4.382;2022-07-22T01:58:26;18.30;99.90
22568;DHT22;11450;50.818;4.382;2022-07-22T02:00:58;18.30;99.90
22568;DHT22;11450;50.818;4.382;2022-07-22T02:03:28;18.30;99.90
22568;DHT22;11450;50.818;4.382;2022-07-22T02:05:54;18.20;99.90
22568;DHT22;11450;50.818;4.382;2022-07-22T02:08:21;18.20;99.90
22568;DHT22;11450;50.818;4.382;2022-07-22T02:11:01;18.20;99.90
22568;DHT22;11450;50.818;4.382;2022-07-22T02:13:28;18.20;99.90
22568;DHT22;11450;50.818;4.382;2022-07-22T02:15:55;18.20;99.90
22568;DHT22;11450;50.818;4.382;2022-07-22T02:18:24;18.20;99.90
22568;DHT22;11450;50.818;4.382;2022-07-22T02:21:12;18.20;99.90
22568;DHT22;11450;50.818;4.382;2022-07-22T02:23:38;18.20;99.90
22568;DHT22;11450;50.818;4.382;2022-07-22T02:26:05;18.10;99.90
22568;DHT22;11450;50.818;4.382;2022-07-22T02:28:34;18.10;99.90
22568;DHT22;11450;50.818;4.382;2022-07-22T02:31:01;18.10;99.90
22568;DHT22;11450;50.818;4.382;2022-07-22T02:33:27;18.10;99.90
22568;DHT22;11450;50.818;4.382;2022-07-22T02:36:26;18.10;99.90
22568;DHT22;11450;50.818;4.382;2022-07-22T02:38:56;18.00;99.90
22568;DHT22;11450;50.818;4.382;2022-07-22T02:41:22;18.20;99.90
22568;DHT22;11450;50.818;4.382;2022-07-22T02:43:49;18.00;99.90
22568;DHT22;11450;50.818;4.382;2022-07-22T02:46:23;17.90;99.90
22568;DHT22;11450;50.818;4.382;2022-07-22T02:48:51;17.90;99.90
22568;DHT22;11450;50.818;4.382;2022-07-22T02:51:38;17.80;99.90
22568;DHT22;11450;50.818;4.382;2022-07-22T02:54:05;17.80;99.90
22568;DHT22;11450;50.818;4.382;2022-07-22T02:56:31;17.80;99.90
22568;DHT22;11450;50.818;4.382;2022-07-22T02:58:57;17.80;99.90
22568;DHT22;11450;50.818;4.382;2022-07-22T03:01:23;17.70;99.90
22568;DHT22;11450;50.818;4.382;2022-07-22T03:03:54;17.70;99.90
22568;DHT22;11450;50.818;4.382;2022-07-22T03:06:25;17.80;99.90
22568;DHT22;11450;50.818;4.382;2022-07-22T03:09:03;17.70;99.90
22568;DHT22;11450;50.818;4.382;2022-07-22T03:11:34;17.70;99.90
22568;DHT22;11450;50.818;4.382;2022-07-22T03:14:03;17.70;99.90
22568;DHT22;11450;50.818;4.382;2022-07-22T03:16:30;17.70;99.90
22568;DHT22;11450;50.818;4.382;2022-07-22T03:18:56;17.70;99.90
22568;DHT22;11450;50.818;4.382;2022-07-22T03:21:25;17.70;99.90
22568;DHT22;11450;50.818;4.382;2022-07-22T03:23:54;17.70;99.90
22568;DHT22;11450;50.818;4.382;2022-07-22T03:26:23;17.70;99.90
22568;DHT22;11450;50.818;4.382;2022-07-22T03:28:50;17.60;99.90
22568;DHT22;11450;50.818;4.382;2022-07-22T03:31:16;17.60;99.90
22568;DHT22;11450;50.818;4.382;2022-07-22T03:33:42;17.60;99.90
22568;DHT22;11450;50.818;4.382;2022-07-22T03:36:21;17.60;99.90
22568;DHT22;11450;50.818;4.382;2022-07-22T03:38:52;17.60;99.90
22568;DHT22;11450;50.818;4.382;2022-07-22T03:41:19;17.50;99.90
22568;DHT22;11450;50.818;4.382;2022-07-22T03:44:08;17.50;99.90
22568;DHT22;11450;50.818;4.382;2022-07-22T03:46:36;17.50;99.90
22568;DHT22;11450;50.818;4.382;2022-07-22T03:49:31;17.40;99.90
22568;DHT22;11450;50.818;4.382;2022-07-22T03:55:46;17.40;99.90
22568;DHT22;11450;50.818;4.382;2022-07-22T03:58:27;17.40;99.90
22568;DHT22;11450;50.818;4.382;2022-07-22T04:01:23;17.50;99.90
22568;DHT22;11450;50.818;4.382;2022-07-22T04:03:56;17.50;99.90
22568;DHT22;11450;50.818;4.382;2022-07-22T04:06:47;17.40;99.90
22568;DHT22;11450;50.818;4.382;2022-07-22T04:09:27;17.40;99.90
22568;DHT22;11450;50.818;4.382;2022-07-22T04:12:38;17.40;99.90
22568;DHT22;11450;50.818;4.382;2022-07-22T04:15:42;17.40;99.90
22568;DHT22;11450;50.818;4.382;2022-07-22T04:18:16;17.40;99.90
22568;DHT22;11450;50.818;4.382;2022-07-22T04:20:55;17.40;99.90
22568;DHT22;11450;50.818;4.382;2022-07-22T04:23:38;17.40;99.90
22568;DHT22;11450;50.818;4.382;2022-07-22T04:26:15;17.30;99.90
22568;DHT22;11450;50.818;4.382;2022-07-22T04:28:47;17.40;99.90
22568;DHT22;11450;50.818;4.382;2022-07-22T04:31:36;17.40;99.90
22568;DHT22;11450;50.818;4.382;2022-07-22T04:34:28;17.50;99.90
22568;DHT22;11450;50.818;4.382;2022-07-22T04:37:36;17.50;99.90
22568;DHT22;11450;50.818;4.382;2022-07-22T04:40:20;17.40;99.90
22568;DHT22;11450;50.818;4.382;2022-07-22T04:43:04;17.40;99.90
22568;DHT22;11450;50.818;4.382;2022-07-22T04:45:43;17.50;99.90
22568;DHT22;11450;50.818;4.382;2022-07-22T04:51:27;17.40;99.90
22568;DHT22;11450;50.818;4.382;2022-07-22T04:54:16;17.40;99.90
22568;DHT22;11450;50.818;4.382;2022-07-22T04:56:43;17.50;99.90
22568;DHT22;11450;50.818;4.382;2022-07-22T04:59:15;17.50;99.90
22568;DHT22;11450;50.818;4.382;2022-07-22T05:01:47;17.50;99.90
22568;DHT22;11450;50.818;4.382;2022-07-22T05:04:19;17.50;99.90
22568;DHT22;11450;50.818;4.382;2022-07-22T05:13:45;17.60;99.90
22568;DHT22;11450;50.818;4.382;2022-07-22T05:16:23;17.60;99.90
22568;DHT22;11450;50.818;4.382;2022-07-22T05:18:54;17.60;99.90
22568;DHT22;11450;50.818;4.382;2022-07-22T05:24:18;17.70;99.90
22568;DHT22;11450;50.818;4.382;2022-07-22T05:26:54;17.70;99.90
22568;DHT22;11450;50.818;4.382;2022-07-22T05:29:28;17.80;99.90
22568;DHT22;11450;50.818;4.382;2022-07-22T05:32:31;17.80;99.90
22568;DHT22;11450;50.818;4.382;2022-07-22T05:35:03;17.90;99.90
22568;DHT22;11450;50.818;4.382;2022-07-22T05:37:46;17.90;99.90
22568;DHT22;11450;50.818;4.382;2022-07-22T05:40:21;17.90;99.90
22568;DHT22;11450;50.818;4.382;2022-07-22T05:43:09;18.00;99.90
22568;DHT22;11450;50.818;4.382;2022-07-22T05:45:55;18.00;99.90
22568;DHT22;11450;50.818;4.382;2022-07-22T05:48:22;18.10;99.90
22568;DHT22;11450;50.818;4.382;2022-07-22T05:50:52;18.10;99.90
22568;DHT22;11450;50.818;4.382;2022-07-22T05:56:42;18.10;99.90
22568;DHT22;11450;50.818;4.382;2022-07-22T05:59:09;18.10;99.90
22568;DHT22;11450;50.818;4.382;2022-07-22T06:01:41;18.10;99.90
22568;DHT22;11450;50.818;4.382;2022-07-22T06:04:12;18.20;99.90
22568;DHT22;11450;50.818;4.382;2022-07-22T06:06:39;18.20;99.90
22568;DHT22;11450;50.818;4.382;2022-07-22T06:12:31;18.30;99.90
22568;DHT22;11450;50.818;4.382;2022-07-22T06:15:07;18.40;99.90
22568;DHT22;11450;50.818;4.382;2022-07-22T06:17:41;18.40;99.90
22568;DHT22;11450;50.818;4.382;2022-07-22T06:20:12;18.60;99.90
22568;DHT22;11450;50.818;4.382;2022-07-22T06:22:45;18.60;99.90
22568;DHT22;11450;50.818;4.382;2022-07-22T06:25:16;18.70;99.90
22568;DHT22;11450;50.818;4.382;2022-07-22T06:27:56;18.70;99.90
22568;DHT22;11450;50.818;4.382;2022-07-22T06:30:40;18.70;99.90
22568;DHT22;11450;50.818;4.382;2022-07-22T06:37:08;18.90;99.90
22568;DHT22;11450;50.818;4.382;2022-07-22T06:39:43;18.90;99.90
22568;DHT22;11450;50.818;4.382;2022-07-22T06:42:31;19.00;99.90
22568;DHT22;11450;50.818;4.382;2022-07-22T06:45:03;19.20;99.90
22568;DHT22;11450;50.818;4.382;2022-07-22T06:47:29;19.40;99.90
22568;DHT22;11450;50.818;4.382;2022-07-22T06:50:05;19.60;99.90
22568;DHT22;11450;50.818;4.382;2022-07-22T06:52:39;19.60;99.90
22568;DHT22;11450;50.818;4.382;2022-07-22T06:55:18;19.70;99.90
22568;DHT22;11450;50.818;4.382;2022-07-22T06:57:44;19.60;99.90
22568;DHT22;11450;50.818;4.382;2022-07-22T07:00:17;19.60;99.90
22568;DHT22;11450;50.818;4.382;2022-07-22T07:02:48;19.70;99.90
22568;DHT22;11450;50.818;4.382;2022-07-22T07:05:16;19.80;99.90
22568;DHT22;11450;50.818;4.382;2022-07-22T07:07:44;19.80;99.90
22568;DHT22;11450;50.818;4.382;2022-07-22T07:10:15;19.90;99.90
22568;DHT22;11450;50.818;4.382;2022-07-22T07:12:48;19.90;99.90
22568;DHT22;11450;50.818;4.382;2022-07-22T07:15:17;19.90;99.90
22568;DHT22;11450;50.818;4.382;2022-07-22T07:17:59;19.90;99.90
22568;DHT22;11450;50.818;4.382;2022-07-22T07:20:29;20.00;99.90
22568;DHT22;11450;50.818;4.382;2022-07-22T07:26:25;20.20;99.90
22568;DHT22;11450;50.818;4.382;2022-07-22T07:29:00;20.40;99.90
22568;DHT22;11450;50.818;4.382;2022-07-22T07:36:55;20.50;99.90
22568;DHT22;11450;50.818;4.382;2022-07-22T08:15:00;20.60;99.90
22568;DHT22;11450;50.818;4.382;2022-07-22T08:17:34;20.50;99.90
22568;DHT22;11450;50.818;4.382;2022-07-22T08:20:00;20.60;99.90
22568;DHT22;11450;50.818;4.382;2022-07-22T08:22:30;20.60;99.90
22568;DHT22;11450;50.818;4.382;2022-07-22T08:24:56;20.70;99.90
22568;DHT22;11450;50.818;4.382;2022-07-22T08:27:28;20.80;99.90
22568;DHT22;11450;50.818;4.382;2022-07-22T08:29:59;20.80;99.90
22568;DHT22;11450;50.818;4.382;2022-07-22T08:32:30;20.90;99.90
22568;DHT22;11450;50.818;4.382;2022-07-22T08:35:23;21.10;99.90
22568;DHT22;11450;50.818;4.382;2022-07-22T08:37:59;21.10;99.90
22568;DHT22;11450;50.818;4.382;2022-07-22T08:40:53;21.20;99.90
22568;DHT22;11450;50.818;4.382;2022-07-22T08:43:35;21.10;99.90
22568;DHT22;11450;50.818;4.382;2022-07-22T08:46:22;21.30;99.90
22568;DHT22;11450;50.818;4.382;2022-07-22T08:52:52;21.40;99.90
22568;DHT22;11450;50.818;4.382;2022-07-22T08:56:12;21.40;99.90
22568;DHT22;11450;50.818;4.382;2022-07-22T08:58:56;21.50;99.90
22568;DHT22;11450;50.818;4.382;2022-07-22T09:11:29;21.80;99.90
22568;DHT22;11450;50.818;4.382;2022-07-22T09:13:56;21.80;99.90
22568;DHT22;11450;50.818;4.382;2022-07-22T09:16:48;22.00;99.90
22568;DHT22;11450;50.818;4.382;2022-07-22T09:19:41;22.20;99.90
22568;DHT22;11450;50.818;4.382;2022-07-22T09:22:38;22.20;99.90
22568;DHT22;11450;50.818;4.382;2022-07-22T09:28:32;22.40;99.90
22568;DHT22;11450;50.818;4.382;2022-07-22T09:31:29;22.60;99.90
22568;DHT22;11450;50.818;4.382;2022-07-22T09:59:10;24.20;99.90
22568;DHT22;11450;50.818;4.382;2022-07-22T10:06:03;23.40;99.90
22568;DHT22;11450;50.818;4.382;2022-07-22T10:09:26;23.30;99.90
22568;DHT22;11450;50.818;4.382;2022-07-22T10:34:41;24.30;99.90
22568;DHT22;11450;50.818;4.382;2022-07-22T10:37:39;24.40;99.90
22568;DHT22;11450;50.818;4.382;2022-07-22T10:41:03;24.80;99.90
22568;DHT22;11450;50.818;4.382;2022-07-22T10:44:07;25.50;99.90
22568;DHT22;11450;50.818;4.382;2022-07-22T11:00:04;27.00;98.50
22568;DHT22;11450;50.818;4.382;2022-07-22T11:08:35;26.80;97.90
22568;DHT22;11450;50.818;4.382;2022-07-22T11:21:12;26.40;96.60
22568;DHT22;11450;50.818;4.382;2022-07-22T11:24:20;26.30;97.90
22568;DHT22;11450;50.818;4.382;2022-07-22T11:31:14;26.70;96.70
22568;DHT22;11450;50.818;4.382;2022-07-22T11:34:10;26.20;97.80
22568;DHT22;11450;50.818;4.382;2022-07-22T11:40:22;26.10;96.40
22568;DHT22;11450;50.818;4.382;2022-07-22T11:43:47;25.70;96.60
22568;DHT22;11450;50.818;4.382;2022-07-22T11:46:55;25.50;97.70
22568;DHT22;11450;50.818;4.382;2022-07-22T12:01:52;24.90;98.00
22568;DHT22;11450;50.818;4.382;2022-07-22T12:20:52;25.10;99.20
22568;DHT22;11450;50.818;4.382;2022-07-22T12:40:28;24.50;98.70
22568;DHT22;11450;50.818;4.382;2022-07-22T13:14:41;25.20;98.80
22568;DHT22;11450;50.818;4.382;2022-07-22T13:17:51;25.00;99.00
22568;DHT22;11450;50.818;4.382;2022-07-22T13:20:21;24.70;99.50
22568;DHT22;11450;50.818;4.382;2022-07-22T13:22:56;24.80;99.60
22568;DHT22;11450;50.818;4.382;2022-07-22T13:29:28;24.40;99.90
22568;DHT22;11450;50.818;4.382;2022-07-22T13:32:29;24.50;98.60
22568;DHT22;11450;50.818;4.382;2022-07-22T13:35:26;24.40;99.40
22568;DHT22;11450;50.818;4.382;2022-07-22T13:38:59;24.70;99.00
22568;DHT22;11450;50.818;4.382;2022-07-22T13:45:52;24.30;99.90
22568;DHT22;11450;50.818;4.382;2022-07-22T13:51:33;24.90;98.20
22568;DHT22;11450;50.818;4.382;2022-07-22T13:53:58;24.90;99.00
22568;DHT22;11450;50.818;4.382;2022-07-22T13:56:25;24.50;99.90
22568;DHT22;11450;50.818;4.382;2022-07-22T13:58:51;24.40;99.90
22568;DHT22;11450;50.818;4.382;2022-07-22T14:01:18;24.70;99.90
22568;DHT22;11450;50.818;4.382;2022-07-22T14:03:45;24.70;99.00
22568;DHT22;11450;50.818;4.382;2022-07-22T14:06:10;24.90;99.60
22568;DHT22;11450;50.818;4.382;2022-07-22T14:08:36;24.50;99.90
22568;DHT22;11450;50.818;4.382;2022-07-22T14:11:04;24.30;99.90
22568;DHT22;11450;50.818;4.382;2022-07-22T14:13:30;24.20;99.90
22568;DHT22;11450;50.818;4.382;2022-07-22T14:15:56;24.30;99.90
22568;DHT22;11450;50.818;4.382;2022-07-22T14:18:22;24.30;99.90
22568;DHT22;11450;50.818;4.382;2022-07-22T14:20:59;24.40;99.90
22568;DHT22;11450;50.818;4.382;2022-07-22T14:23:53;24.60;99.70
22568;DHT22;11450;50.818;4.382;2022-07-22T14:27:24;24.60;99.90
22568;DHT22;11450;50.818;4.382;2022-07-22T14:33:25;24.40;99.90
22568;DHT22;11450;50.818;4.382;2022-07-22T14:36:25;24.20;99.90
22568;DHT22;11450;50.818;4.382;2022-07-22T14:39:34;24.30;99.90
22568;DHT22;11450;50.818;4.382;2022-07-22T14:42:39;24.00;99.90
22568;DHT22;11450;50.818;4.382;2022-07-22T14:45:28;24.00;99.90
22568;DHT22;11450;50.818;4.382;2022-07-22T14:48:42;24.20;99.90
22568;DHT22;11450;50.818;4.382;2022-07-22T14:51:44;24.30;99.90
22568;DHT22;11450;50.818;4.382;2022-07-22T14:59:51;23.60;99.90
22568;DHT22;11450;50.818;4.382;2022-07-22T15:02:35;23.80;99.90
22568;DHT22;11450;50.818;4.382;2022-07-22T15:05:14;24.00;99.90
22568;DHT22;11450;50.818;4.382;2022-07-22T15:07:40;24.10;99.90
22568;DHT22;11450;50.818;4.382;2022-07-22T15:10:07;24.10;99.90
22568;DHT22;11450;50.818;4.382;2022-07-22T15:12:53;24.00;99.90
22568;DHT22;11450;50.818;4.382;2022-07-22T15:15:18;23.80;99.90
22568;DHT22;11450;50.818;4.382;2022-07-22T15:17:44;23.70;99.90
22568;DHT22;11450;50.818;4.382;2022-07-22T15:20:14;23.80;99.90
22568;DHT22;11450;50.818;4.382;2022-07-22T15:22:56;24.00;99.90
22568;DHT22;11450;50.818;4.382;2022-07-22T15:29:16;24.00;99.90
22568;DHT22;11450;50.818;4.382;2022-07-22T15:32:29;23.80;99.90
22568;DHT22;11450;50.818;4.382;2022-07-22T15:35:37;23.70;99.90
22568;DHT22;11450;50.818;4.382;2022-07-22T15:38:44;23.70;99.90
22568;DHT22;11450;50.818;4.382;2022-07-22T15:41:20;23.70;99.90
22568;DHT22;11450;50.818;4.382;2022-07-22T15:43:48;23.60;99.90
22568;DHT22;11450;50.818;4.382;2022-07-22T15:46:14;23.70;99.90
22568;DHT22;11450;50.818;4.382;2022-07-22T15:48:48;23.60;99.90
22568;DHT22;11450;50.818;4.382;2022-07-22T15:51:15;23.70;99.90
22568;DHT22;11450;50.818;4.382;2022-07-22T15:53:43;23.90;99.90
22568;DHT22;11450;50.818;4.382;2022-07-22T15:56:14;23.60;99.90
22568;DHT22;11450;50.818;4.382;2022-07-22T15:58:41;23.40;99.90
22568;DHT22;11450;50.818;4.382;2022-07-22T16:01:27;23.50;99.90
22568;DHT22;11450;50.818;4.382;2022-07-22T16:04:07;23.40;99.90
22568;DHT22;11450;50.818;4.382;2022-07-22T16:17:37;23.40;99.90
22568;DHT22;11450;50.818;4.382;2022-07-22T16:20:09;23.30;99.90
22568;DHT22;11450;50.818;4.382;2022-07-22T16:22:44;23.20;99.90
22568;DHT22;11450;50.818;4.382;2022-07-22T16:31:08;23.20;99.90
22568;DHT22;11450;50.818;4.382;2022-07-22T16:41:23;23.30;99.90
22568;DHT22;11450;50.818;4.382;2022-07-22T16:43:52;23.40;99.90
22568;DHT22;11450;50.818;4.382;2022-07-22T16:46:18;23.30;99.90
22568;DHT22;11450;50.818;4.382;2022-07-22T16:48:49;23.20;99.90
22568;DHT22;11450;50.818;4.382;2022-07-22T16:54:01;23.30;99.90
22568;DHT22;11450;50.818;4.382;2022-07-22T16:56:38;23.10;99.90
22568;DHT22;11450;50.818;4.382;2022-07-22T16:59:05;23.10;99.90
22568;DHT22;11450;50.818;4.382;2022-07-22T17:01:35;23.10;99.90
22568;DHT22;11450;50.818;4.382;2022-07-22T17:04:08;23.20;99.90
22568;DHT22;11450;50.818;4.382;2022-07-22T17:06:34;23.10;99.90
22568;DHT22;11450;50.818;4.382;2022-07-22T17:09:00;22.90;99.90
22568;DHT22;11450;50.818;4.382;2022-07-22T17:11:26;22.70;99.90
22568;DHT22;11450;50.818;4.382;2022-07-22T17:13:56;22.80;99.90
22568;DHT22;11450;50.818;4.382;2022-07-22T17:16:52;22.90;99.90
22568;DHT22;11450;50.818;4.382;2022-07-22T17:22:40;22.70;99.90
22568;DHT22;11450;50.818;4.382;2022-07-22T17:25:19;22.50;99.90
22568;DHT22;11450;50.818;4.382;2022-07-22T17:27:56;22.40;99.90
22568;DHT22;11450;50.818;4.382;2022-07-22T17:30:37;22.50;99.90
22568;DHT22;11450;50.818;4.382;2022-07-22T17:33:35;22.50;99.90
22568;DHT22;11450;50.818;4.382;2022-07-22T17:36:09;22.50;99.90
22568;DHT22;11450;50.818;4.382;2022-07-22T17:38:39;22.40;99.90
22568;DHT22;11450;50.818;4.382;2022-07-22T17:41:05;22.30;99.90
22568;DHT22;11450;50.818;4.382;2022-07-22T17:43:32;22.20;99.90
22568;DHT22;11450;50.818;4.382;2022-07-22T17:45:58;22.30;99.90
22568;DHT22;11450;50.818;4.382;2022-07-22T17:48:25;22.40;99.90
22568;DHT22;11450;50.818;4.382;2022-07-22T17:53:32;22.30;99.90
22568;DHT22;11450;50.818;4.382;2022-07-22T17:55:58;22.20;99.90
22568;DHT22;11450;50.818;4.382;2022-07-22T17:58:23;22.20;99.90
22568;DHT22;11450;50.818;4.382;2022-07-22T18:00:49;22.10;99.90
22568;DHT22;11450;50.818;4.382;2022-07-22T18:03:15;22.10;99.90
22568;DHT22;11450;50.818;4.382;2022-07-22T18:05:40;22.10;99.90
22568;DHT22;11450;50.818;4.382;2022-07-22T18:08:07;22.10;99.90
22568;DHT22;11450;50.818;4.382;2022-07-22T18:10:33;22.10;99.90
22568;DHT22;11450;50.818;4.382;2022-07-22T18:12:58;22.00;99.90
22568;DHT22;11450;50.818;4.382;2022-07-22T18:15:24;22.00;99.90
22568;DHT22;11450;50.818;4.382;2022-07-22T18:17:50;21.90;99.90
22568;DHT22;11450;50.818;4.382;2022-07-22T18:20:15;21.90;99.90
22568;DHT22;11450;50.818;4.382;2022-07-22T18:22:42;21.80;99.90
22568;DHT22;11450;50.818;4.382;2022-07-22T18:25:08;21.90;99.90
22568;DHT22;11450;50.818;4.382;2022-07-22T18:27:33;21.80;99.90
22568;DHT22;11450;50.818;4.382;2022-07-22T18:29:59;21.80;99.90
22568;DHT22;11450;50.818;4.382;2022-07-22T18:32:25;21.80;99.90
22568;DHT22;11450;50.818;4.382;2022-07-22T18:34:50;21.70;99.90
22568;DHT22;11450;50.818;4.382;2022-07-22T18:37:16;21.70;99.90
22568;DHT22;11450;50.818;4.382;2022-07-22T18:39:42;21.70;99.90
22568;DHT22;11450;50.818;4.382;2022-07-22T18:42:07;21.70;99.90
22568;DHT22;11450;50.818;4.382;2022-07-22T18:44:33;21.80;99.90
22568;DHT22;11450;50.818;4.382;2022-07-22T18:46:59;21.80;99.90
22568;DHT22;11450;50.818;4.382;2022-07-22T18:49:24;21.70;99.90
22568;DHT22;11450;50.818;4.382;2022-07-22T18:51:50;21.70;99.90
22568;DHT22;11450;50.818;4.382;2022-07-22T18:54:15;21.70;99.90
22568;DHT22;11450;50.818;4.382;2022-07-22T18:56:41;21.70;99.90
22568;DHT22;11450;50.818;4.382;2022-07-22T18:59:07;21.60;99.90
22568;DHT22;11450;50.818;4.382;2022-07-22T19:01:33;21.50;99.90
22568;DHT22;11450;50.818;4.382;2022-07-22T19:03:59;21.50;99.90
22568;DHT22;11450;50.818;4.382;2022-07-22T19:06:25;21.50;99.90
22568;DHT22;11450;50.818;4.382;2022-07-22T19:08:51;21.50;99.90
22568;DHT22;11450;50.818;4.382;2022-07-22T19:11:20;21.40;99.90
22568;DHT22;11450;50.818;4.382;2022-07-22T19:13:45;21.40;99.90
22568;DHT22;11450;50.818;4.382;2022-07-22T19:16:11;21.40;99.90
22568;DHT22;11450;50.818;4.382;2022-07-22T19:18:37;21.40;99.90
22568;DHT22;11450;50.818;4.382;2022-07-22T19:21:03;21.40;99.90
22568;DHT22;11450;50.818;4.382;2022-07-22T19:23:28;21.50;99.90
22568;DHT22;11450;50.818;4.382;2022-07-22T19:25:54;21.40;99.90
22568;DHT22;11450;50.818;4.382;2022-07-22T19:28:20;21.40;99.90
22568;DHT22;11450;50.818;4.382;2022-07-22T19:30:46;21.50;99.90
22568;DHT22;11450;50.818;4.382;2022-07-22T19:33:12;21.40;99.90
22568;DHT22;11450;50.818;4.382;2022-07-22T19:35:38;21.40;99.90
22568;DHT22;11450;50.818;4.382;2022-07-22T19:38:18;21.40;99.90
22568;DHT22;11450;50.818;4.382;2022-07-22T19:40:44;21.30;99.90
22568;DHT22;11450;50.818;4.382;2022-07-22T19:43:09;21.30;99.90
22568;DHT22;11450;50.818;4.382;2022-07-22T19:45:35;21.30;99.90
22568;DHT22;11450;50.818;4.382;2022-07-22T19:48:01;21.20;99.90
22568;DHT22;11450;50.818;4.382;2022-07-22T19:50:27;21.30;99.90
22568;DHT22;11450;50.818;4.382;2022-07-22T19:52:52;21.30;99.90
22568;DHT22;11450;50.818;4.382;2022-07-22T19:55:18;21.20;99.90
22568;DHT22;11450;50.818;4.382;2022-07-22T19:57:44;21.20;99.90
22568;DHT22;11450;50.818;4.382;2022-07-22T20:00:10;21.10;99.90
22568;DHT22;11450;50.818;4.382;2022-07-22T20:02:38;21.10;99.90
22568;DHT22;11450;50.818;4.382;2022-07-22T20:05:05;21.10;99.90
22568;DHT22;11450;50.818;4.382;2022-07-22T20:07:32;21.10;99.90
22568;DHT22;11450;50.818;4.382;2022-07-22T20:09:57;21.10;99.90
22568;DHT22;11450;50.818;4.382;2022-07-22T20:12:23;21.10;99.90
22568;DHT22;11450;50.818;4.382;2022-07-22T20:14:49;21.10;99.90
22568;DHT22;11450;50.818;4.382;2022-07-22T20:17:14;21.10;99.90
22568;DHT22;11450;50.818;4.382;2022-07-22T20:19:40;21.00;99.90
22568;DHT22;11450;50.818;4.382;2022-07-22T20:22:06;21.00;99.90
22568;DHT22;11450;50.818;4.382;2022-07-22T20:24:33;21.00;99.90
22568;DHT22;11450;50.818;4.382;2022-07-22T20:26:59;21.00;99.90
22568;DHT22;11450;50.818;4.382;2022-07-22T20:29:30;21.00;99.90
22568;DHT22;11450;50.818;4.382;2022-07-22T20:31:58;20.90;99.90
22568;DHT22;11450;50.818;4.382;2022-07-22T20:34:23;20.90;99.90
22568;DHT22;11450;50.818;4.382;2022-07-22T20:36:49;20.90;99.90
22568;DHT22;11450;50.818;4.382;2022-07-22T20:39:18;20.90;99.90
22568;DHT22;11450;50.818;4.382;2022-07-22T20:41:44;20.90;99.90
22568;DHT22;11450;50.818;4.382;2022-07-22T20:44:38;20.90;99.90
22568;DHT22;11450;50.818;4.382;2022-07-22T20:47:05;20.90;99.90
22568;DHT22;11450;50.818;4.382;2022-07-22T20:49:33;20.80;99.90
22568;DHT22;11450;50.818;4.382;2022-07-22T20:51:59;20.80;99.90
22568;DHT22;11450;50.818;4.382;2022-07-22T20:54:26;20.80;99.90
22568;DHT22;11450;50.818;4.382;2022-07-22T20:56:52;20.80;99.90
22568;DHT22;11450;50.818;4.382;2022-07-22T20:59:17;20.80;99.90
22568;DHT22;11450;50.818;4.382;2022-07-22T21:01:43;20.80;99.90
22568;DHT22;11450;50.818;4.382;2022-07-22T21:04:09;20.70;99.90
22568;DHT22;11450;50.818;4.382;2022-07-22T21:06:40;20.60;99.90
22568;DHT22;11450;50.818;4.382;2022-07-22T21:09:06;20.70;99.90
22568;DHT22;11450;50.818;4.382;2022-07-22T21:11:31;20.70;99.90
22568;DHT22;11450;50.818;4.382;2022-07-22T21:13:57;20.60;99.90
22568;DHT22;11450;50.818;4.382;2022-07-22T21:16:23;20.60;99.90
22568;DHT22;11450;50.818;4.382;2022-07-22T21:18:48;20.60;99.90
22568;DHT22;11450;50.818;4.382;2022-07-22T21:21:14;20.60;99.90
22568;DHT22;11450;50.818;4.382;2022-07-22T21:23:40;20.70;99.90
22568;DHT22;11450;50.818;4.382;2022-07-22T21:26:06;20.50;99.90
22568;DHT22;11450;50.818;4.382;2022-07-22T21:28:33;20.50;99.90
22568;DHT22;11450;50.818;4.382;2022-07-22T21:30:59;20.50;99.90
22568;DHT22;11450;50.818;4.382;2022-07-22T21:33:25;20.40;99.90
22568;DHT22;11450;50.818;4.382;2022-07-22T21:35:53;20.50;99.90
22568;DHT22;11450;50.818;4.382;2022-07-22T21:38:21;20.40;99.90
22568;DHT22;11450;50.818;4.382;2022-07-22T21:40:46;20.40;99.90